Time;durP1;ratioP1;P1;durP2;ratioP2;P2;SDS_P1;SDS_P2;PMS_P1;PMS_P2;Temp;Humidity;BMP_temperature;BMP_pressure;BME280_temperature;BME280_humidity;BME280_pressure;Samples;Min_cycle;Max_cycle;Signal;HPM_P1;HPM_P2
2021/09/02 00:02:09;;;;;;;14.88;11.52;;;14.60;75.60;;;14.30;62.93;95800.50;5089869;28;20195;-80
2021/09/02 00:04:37;;;;;;;18.50;12.38;;;14.60;76.00;;;14.33;63.51;95796.66;5057309;28;20193;-80
2021/09/02 00:07:04;;;;;;;17.55;11.50;;;14.70;76.40;;;14.35;63.71;95803.34;5057162;28;20292;-80
2021/09/02 00:09:32;;;;;;;15.02;11.48;;;14.70;76.60;;;14.39;64.36;95795.88;5056783;28;20215;-80
2021/09/02 00:12:01;;;;;;;14.70;11.30;;;14.70;76.90;;;14.39;64.13;95801.97;5057143;28;20215;-79
2021/09/02 00:14:29;;;;;;;15.02;11.55;;;14.70;77.00;;;14.40;63.56;95795.69;5041018;28;20289;-80
2021/09/02 00:16:56;;;;;;;14.52;10.73;;;14.70;76.90;;;14.39;63.21;95801.16;5056743;28;20230;-80
2021/09/02 00:19:23;;;;;;;14.55;11.25;;;14.70;77.50;;;14.37;63.40;95803.19;5089820;28;20698;-78
2021/09/02 00:21:51;;;;;;;16.58;11.27;;;14.70;76.60;;;14.37;63.42;95800.56;5053429;28;20251;-79
2021/09/02 00:24:18;;;;;;;14.60;10.63;;;14.80;76.80;;;14.30;62.97;95791.78;5037030;28;20191;-80
2021/09/02 00:26:46;;;;;;;15.65;11.43;;;14.70;76.40;;;14.32;63.00;95798.47;5040136;28;20275;-80
2021/09/02 00:29:13;;;;;;;13.50;10.85;;;14.70;76.50;;;14.32;63.16;95798.47;5056694;28;20191;-80
2021/09/02 00:31:40;;;;;;;14.45;10.88;;;14.70;76.70;;;14.34;62.77;95799.13;5057066;28;20305;-80
2021/09/02 00:34:07;;;;;;;16.00;11.25;;;14.80;76.70;;;14.32;62.78;95798.47;5056795;28;20191;-80
2021/09/02 00:36:34;;;;;;;15.63;11.32;;;14.80;76.60;;;14.32;62.67;95795.00;5039737;28;20257;-80
2021/09/02 00:39:01;;;;;;;14.45;10.73;;;14.70;76.40;;;14.27;63.17;95792.97;5055853;28;20202;-79
2021/09/02 00:41:29;;;;;;;14.93;10.70;;;14.70;76.50;;;14.29;62.62;95792.78;5056719;28;20699;-80
2021/09/02 00:43:56;;;;;;;14.27;10.25;;;14.70;76.30;;;14.26;62.87;95788.69;5056885;28;20256;-80
2021/09/02 00:46:24;;;;;;;16.58;11.45;;;14.70;76.40;;;14.25;62.96;95794.97;5056374;28;20234;-80
2021/09/02 00:48:52;;;;;;;16.92;11.70;;;14.60;77.40;;;14.22;62.69;95796.19;5053009;28;20195;-80
2021/09/02 00:51:20;;;;;;;15.27;11.45;;;14.70;76.50;;;14.18;63.28;95792.28;5063551;28;20267;-79
2021/09/02 00:53:50;;;;;;;15.45;11.80;;;14.70;76.60;;;14.18;63.52;95802.84;5073261;28;20270;-80
2021/09/02 00:56:18;;;;;;;16.15;12.02;;;14.70;76.70;;;14.16;63.36;95799.59;5089577;28;20731;-79
2021/09/02 00:58:48;;;;;;;15.63;11.40;;;14.60;76.80;;;14.13;63.57;95799.97;5072817;28;20648;-80
2021/09/02 01:01:17;;;;;;;15.55;12.25;;;14.50;76.80;;;14.08;64.85;95808.44;5036547;28;20224;-80
2021/09/02 01:03:45;;;;;;;17.58;12.05;;;14.50;77.20;;;14.08;64.77;95810.28;5053088;28;20234;-80
2021/09/02 01:06:14;;;;;;;17.45;13.05;;;14.50;77.50;;;14.09;64.52;95812.72;5052834;28;20705;-80
2021/09/02 01:08:43;;;;;;;16.90;11.63;;;14.50;77.80;;;14.09;64.76;95802.16;5069792;28;20196;-79
2021/09/02 01:11:10;;;;;;;18.17;12.23;;;14.50;77.80;;;14.05;64.88;95802.78;5085250;28;20250;-80
2021/09/02 01:13:37;;;;;;;15.77;11.05;;;14.50;77.80;;;14.05;64.86;95800.13;5072914;28;20558;-80
2021/09/02 01:16:04;;;;;;;16.10;12.00;;;14.50;77.70;;;14.01;65.22;95804.97;5056039;28;20317;-79
2021/09/02 01:18:31;;;;;;;16.52;12.05;;;14.50;77.80;;;14.00;65.28;95802.50;5055966;28;20200;-79
2021/09/02 01:20:59;;;;;;;15.00;11.52;;;14.50;77.80;;;13.97;64.89;95806.34;5055847;28;20260;-80
2021/09/02 01:23:26;;;;;;;13.98;10.75;;;14.50;77.80;;;13.92;64.64;95796.38;5055915;28;20575;-80
2021/09/02 01:25:53;;;;;;;14.18;10.57;;;14.50;77.80;;;13.89;64.54;95802.03;5055828;28;20713;-79
2021/09/02 01:28:20;;;;;;;12.77;10.57;;;14.40;77.70;;;13.84;64.74;95799.16;5038765;28;20215;-78
2021/09/02 01:30:49;;;;;;;15.25;10.90;;;14.30;77.60;;;13.81;64.70;95799.53;5054628;28;20263;-80
2021/09/02 01:33:16;;;;;;;16.05;11.20;;;14.40;77.70;;;13.74;65.65;95801.28;5055392;28;20198;-79
2021/09/02 01:35:44;;;;;;;13.80;10.75;;;14.30;77.60;;;13.69;65.82;95804.47;5055546;28;20265;-80
2021/09/02 01:38:12;;;;;;;16.95;11.73;;;14.30;77.60;;;13.66;66.03;95799.59;5052245;28;20605;-80
2021/09/02 01:40:46;;;;;;;17.15;11.38;;;14.20;77.80;;;13.63;65.79;95807.88;5071447;28;20786;-79
2021/09/02 01:43:16;;;;;;;15.27;11.02;;;14.20;78.10;;;13.62;65.87;95800.97;5040615;28;20293;-79
2021/09/02 01:45:44;;;;;;;15.85;11.70;;;14.10;78.00;;;13.58;65.63;95795.25;5051957;28;20207;-80
2021/09/02 01:48:12;;;;;;;19.48;12.30;;;14.10;77.90;;;13.55;65.79;95798.28;5071721;28;20210;-80
2021/09/02 01:50:40;;;;;;;19.35;12.93;;;14.10;78.00;;;13.49;65.89;95804.31;5071501;28;20210;-80
2021/09/02 01:53:14;;;;;;;18.15;12.35;;;14.10;78.30;;;13.50;66.17;95805.94;5055371;28;20692;-80
2021/09/02 01:55:43;;;;;;;16.00;11.93;;;14.00;79.10;;;13.44;66.28;95804.06;5055467;28;20238;-80
2021/09/02 01:58:10;;;;;;;14.98;11.48;;;14.10;78.50;;;13.44;66.09;95804.06;5088063;28;20197;-80
2021/09/02 02:00:38;;;;;;;14.60;11.05;;;13.90;78.20;;;13.41;66.11;95796.53;5071787;28;20762;-80
2021/09/02 02:03:06;;;;;;;13.98;10.52;;;13.90;78.20;;;13.33;65.73;95780.78;5071662;28;20656;-80
2021/09/02 02:05:34;;;;;;;15.85;11.75;;;13.90;78.10;;;13.34;66.19;95791.16;5071710;28;20280;-80
2021/09/02 02:08:02;;;;;;;14.00;11.60;;;13.90;78.40;;;13.33;66.52;95794.81;5055015;28;20209;-80
2021/09/02 02:10:31;;;;;;;16.20;10.23;;;13.80;78.40;;;13.32;65.92;95802.88;5055030;28;20301;-80
2021/09/02 02:13:01;;;;;;;13.57;10.48;;;13.90;78.40;;;13.27;66.00;95804.25;5055280;28;20625;-80
2021/09/02 02:15:30;;;;;;;15.10;11.05;;;13.80;78.30;;;13.25;65.54;95800.97;5055245;28;20313;-80
2021/09/02 02:17:58;;;;;;;13.93;10.50;;;13.80;78.10;;;13.22;65.95;95800.53;5054031;28;20281;-79
2021/09/02 02:20:25;;;;;;;15.13;11.35;;;13.70;78.20;;;13.18;66.65;95799.28;5054652;28;20250;-79
2021/09/02 02:22:53;;;;;;;16.23;11.80;;;13.70;78.30;;;13.14;66.43;95801.47;5071480;28;20194;-80
2021/09/02 02:25:20;;;;;;;17.42;11.88;;;13.70;78.40;;;13.11;66.49;95804.50;5054550;28;20301;-79
2021/09/02 02:27:47;;;;;;;14.60;11.50;;;13.70;78.70;;;13.08;66.38;95808.28;5070833;28;20241;-80
2021/09/02 02:30:18;;;;;;;16.27;10.82;;;13.60;78.50;;;13.08;65.67;95810.13;5054249;28;20229;-79
2021/09/02 02:32:46;;;;;;;15.93;11.05;;;13.60;78.60;;;13.10;66.15;95805.50;5037975;28;20209;-79
2021/09/02 02:35:15;;;;;;;15.18;10.68;;;13.60;78.70;;;13.15;66.66;95807.56;5054416;28;20287;-80
2021/09/02 02:37:43;;;;;;;16.75;10.27;;;13.50;79.60;;;13.19;65.84;95801.72;5054440;28;20201;-79
2021/09/02 02:40:12;;;;;;;16.65;10.02;;;13.60;79.00;;;13.25;65.81;95794.91;5055059;28;20211;-80
2021/09/02 02:42:40;;;;;;;15.82;11.77;;;13.60;79.10;;;13.32;66.36;95801.06;5054144;28;20201;-79
2021/09/02 02:45:08;;;;;;;17.20;12.00;;;13.70;79.30;;;13.35;66.53;95799.88;5054621;28;20214;-79
2021/09/02 02:47:36;;;;;;;15.30;11.70;;;13.70;79.40;;;13.33;66.03;95802.69;5038026;28;20565;-79
2021/09/02 02:50:05;;;;;;;15.18;11.50;;;13.70;79.20;;;13.31;66.56;95807.34;5034322;28;20319;-80
2021/09/02 02:52:32;;;;;;;16.58;11.48;;;13.70;79.20;;;13.31;66.91;95812.59;5034581;28;20199;-80
2021/09/02 02:54:59;;;;;;;15.88;12.73;;;13.70;79.10;;;13.22;66.87;95796.09;5051134;28;20298;-80
2021/09/02 02:57:27;;;;;;;14.35;11.43;;;13.70;79.10;;;13.24;66.80;95809.06;5051367;28;20187;-79
2021/09/02 02:59:54;;;;;;;17.50;11.85;;;13.70;79.00;;;13.21;66.58;95805.00;5051114;28;20187;-79
2021/09/02 03:02:21;;;;;;;14.43;10.95;;;13.70;79.00;;;13.16;66.63;95811.81;5076642;28;20201;-80
2021/09/02 03:04:48;;;;;;;16.33;12.07;;;13.70;79.00;;;13.13;66.82;95795.41;5066106;28;20622;-80
2021/09/02 03:07:16;;;;;;;16.40;12.25;;;13.60;78.90;;;13.09;66.68;95793.31;5066056;28;20291;-79
2021/09/02 03:09:43;;;;;;;16.70;11.55;;;13.60;79.00;;;13.07;66.95;95805.84;5049768;28;20201;-79
2021/09/02 03:12:11;;;;;;;16.20;10.88;;;13.60;79.00;;;13.05;66.47;95794.69;5049703;28;20191;-80
2021/09/02 03:14:38;;;;;;;15.93;11.82;;;13.50;78.90;;;13.02;66.01;95808.22;5074406;28;20194;-79
2021/09/02 03:17:05;;;;;;;12.52;10.80;;;13.50;78.90;;;12.98;66.18;95803.31;5057675;28;20214;-79
2021/09/02 03:19:32;;;;;;;18.13;12.68;;;13.50;78.80;;;12.95;66.66;95808.13;5051254;28;20227;-80
2021/09/02 03:22:00;;;;;;;17.73;12.48;;;13.60;79.20;;;12.93;66.53;95808.31;5040428;28;20203;-79
2021/09/02 03:24:26;;;;;;;17.20;12.30;;;13.40;78.90;;;12.90;66.59;95805.25;5090221;28;20274;-80
2021/09/02 03:26:54;;;;;;;15.93;11.80;;;13.40;78.90;;;12.84;66.60;95801.56;5066701;28;20223;-84
2021/09/02 03:29:21;;;;;;;17.20;12.55;;;13.40;79.00;;;12.80;66.96;95790.56;5075348;28;20648;-83
2021/09/02 03:31:48;;;;;;;16.50;11.50;;;13.40;79.10;;;12.79;67.03;95811.78;5075211;28;20268;-83
2021/09/02 03:34:15;;;;;;;17.88;12.65;;;13.40;79.10;;;12.80;66.60;95801.09;5075823;28;20297;-84
2021/09/02 03:36:45;;;;;;;17.55;12.73;;;13.30;79.10;;;12.78;66.68;95808.34;5074727;28;20229;-83
2021/09/02 03:39:13;;;;;;;16.00;12.07;;;13.30;79.20;;;12.77;66.71;95814.63;5055122;28;20286;-82
2021/09/02 03:41:42;;;;;;;19.30;13.65;;;13.30;79.20;;;12.76;66.83;95807.72;5057900;28;20753;-83
2021/09/02 03:44:11;;;;;;;19.63;13.55;;;13.30;79.30;;;12.75;67.15;95811.34;5041323;28;20298;-83
2021/09/02 03:46:38;;;;;;;21.05;14.38;;;13.20;79.30;;;12.76;66.89;95812.19;5056942;28;20695;-82
2021/09/02 03:49:06;;;;;;;18.80;13.73;;;13.20;79.40;;;12.76;66.96;95809.53;5064661;28;20226;-83
2021/09/02 03:51:34;;;;;;;22.88;14.05;;;13.30;79.60;;;12.76;67.14;95812.97;5073913;28;20260;-81
2021/09/02 03:54:01;;;;;;;19.40;13.73;;;13.30;79.60;;;12.75;67.13;95811.34;5073957;28;20275;-82
2021/09/02 03:56:28;;;;;;;19.98;13.77;;;13.20;79.70;;;12.76;67.43;95809.53;5053007;28;20462;-82
2021/09/02 03:58:56;;;;;;;20.65;14.57;;;13.20;80.00;;;12.76;67.56;95817.44;5071423;28;20189;-83
2021/09/02 04:01:25;;;;;;;20.35;13.45;;;13.20;79.90;;;12.77;67.43;95813.81;5055523;28;20219;-82
2021/09/02 04:03:53;;;;;;;18.00;13.00;;;13.30;80.00;;;12.76;67.01;95818.25;5072025;28;20183;-82
2021/09/02 04:06:21;;;;;;;16.70;12.57;;;13.20;79.80;;;12.74;66.88;95817.63;5055228;28;20226;-83
2021/09/02 04:08:48;;;;;;;18.13;13.82;;;13.20;79.70;;;12.71;67.29;95817.97;5055823;28;20215;-83
2021/09/02 04:11:15;;;;;;;18.38;13.73;;;13.20;79.70;;;12.69;66.97;95814.72;5073161;28;20318;-83
2021/09/02 04:13:43;;;;;;;17.00;12.30;;;13.20;79.70;;;12.70;66.43;95826.06;5057136;28;20298;-83
2021/09/02 04:16:10;;;;;;;15.57;11.07;;;13.20;79.60;;;12.65;66.50;95816.09;5073643;28;20290;-83
2021/09/02 04:18:37;;;;;;;15.40;11.55;;;13.10;79.40;;;12.63;66.08;95818.91;5057948;28;20298;-82
2021/09/02 04:21:05;;;;;;;16.70;11.80;;;13.20;79.40;;;12.61;66.06;95825.34;5074527;28;20222;-83
2021/09/02 04:23:32;;;;;;;15.55;10.98;;;13.10;79.30;;;12.59;65.96;95824.69;5074770;28;20218;-83
2021/09/02 04:26:02;;;;;;;14.40;10.63;;;13.10;79.20;;;12.52;65.97;95824.59;5057771;28;20310;-83
2021/09/02 04:28:29;;;;;;;17.25;12.32;;;13.00;79.10;;;12.51;66.18;95828.22;5074716;28;20235;-83
2021/09/02 04:30:57;;;;;;;17.25;11.68;;;13.00;79.20;;;12.46;66.21;95826.16;5058182;28;20714;-82
2021/09/02 04:33:24;;;;;;;15.55;10.93;;;13.00;79.20;;;12.45;65.98;95827.16;5075482;28;20190;-82
2021/09/02 04:35:51;;;;;;;16.00;11.45;;;12.90;79.10;;;12.43;66.25;95830.97;5057961;28;20315;-84
2021/09/02 04:38:20;;;;;;;17.42;12.48;;;12.90;79.10;;;12.40;66.50;95824.25;5057896;28;20579;-82
2021/09/02 04:40:48;;;;;;;17.27;12.65;;;12.90;79.30;;;12.40;66.43;95826.88;5074123;28;20763;-83
2021/09/02 04:43:16;;;;;;;17.58;12.95;;;12.90;79.40;;;12.39;66.81;95829.66;5057368;28;20242;-83
2021/09/02 04:45:44;;;;;;;14.98;11.93;;;12.90;79.50;;;12.41;66.61;95830.31;5073787;28;20680;-83
2021/09/02 04:48:21;;;;;;;18.40;13.20;;;12.90;79.50;;;12.42;66.55;95835.41;5057439;28;20257;-82
2021/09/02 04:50:51;;;;;;;19.88;14.48;;;12.80;79.70;;;12.43;66.92;95831.78;5057350;28;20222;-83
2021/09/02 04:53:20;;;;;;;18.95;12.98;;;12.90;79.90;;;12.46;66.54;95833.22;5057749;28;20628;-83
2021/09/02 04:55:47;;;;;;;18.27;12.07;;;12.90;79.90;;;12.49;66.23;95832.88;5055636;28;20219;-82
2021/09/02 04:58:15;;;;;;;16.52;11.73;;;12.90;79.90;;;12.54;66.47;95829.69;5035435;28;20708;-83
2021/09/02 05:00:43;;;;;;;18.17;12.82;;;12.80;79.90;;;12.55;66.58;95821.63;5055923;28;20283;-84
2021/09/02 05:03:10;;;;;;;15.85;12.52;;;12.90;80.00;;;12.60;66.50;95834.25;5050426;28;20209;-83
2021/09/02 05:05:38;;;;;;;18.35;12.25;;;12.90;80.00;;;12.63;66.28;95833.84;5033918;28;20231;-83
2021/09/02 05:08:05;;;;;;;18.42;12.18;;;13.00;80.10;;;12.67;66.29;95842.22;5050934;28;20228;-83
2021/09/02 05:10:34;;;;;;;15.98;12.27;;;13.00;80.20;;;12.73;66.21;95847.59;5050739;28;20204;-84
2021/09/02 05:13:01;;;;;;;18.83;12.55;;;13.00;80.50;;;12.77;66.14;95851.47;5051988;28;20187;-84
2021/09/02 05:15:28;;;;;;;18.52;12.85;;;13.00;80.30;;;12.85;66.29;95849.75;5051662;28;20654;-84
2021/09/02 05:17:55;;;;;;;21.75;15.55;;;13.10;80.50;;;12.88;67.50;95850.19;5051799;28;20213;-83
2021/09/02 05:20:23;;;;;;;24.02;16.13;;;13.10;80.80;;;13.00;66.91;95850.56;5051784;28;20236;-84
2021/09/02 05:22:50;;;;;;;21.33;15.55;;;13.20;81.00;;;13.10;67.03;95851.06;5051856;28;20230;-82
2021/09/02 05:25:18;;;;;;;20.20;14.80;;;13.20;81.00;;;13.16;67.08;95839.00;5050889;28;20261;-84
2021/09/02 05:27:45;;;;;;;18.70;13.82;;;13.30;81.20;;;13.28;66.67;95849.84;5051367;28;20233;-84
2021/09/02 05:30:14;;;;;;;19.50;14.40;;;13.30;81.20;;;13.36;66.54;95844.47;5053159;28;20310;-84
2021/09/02 05:32:45;;;;;;;22.15;15.02;;;13.40;81.40;;;13.45;66.91;95847.84;5053864;28;20206;-83
2021/09/02 05:35:14;;;;;;;23.15;15.63;;;13.50;81.50;;;13.55;67.28;95860.72;5053500;28;20266;-83
2021/09/02 05:37:41;;;;;;;21.75;15.20;;;13.60;81.50;;;13.58;67.13;95836.63;5053287;28;20306;-83
2021/09/02 05:40:10;;;;;;;21.00;14.75;;;13.70;81.60;;;13.69;67.00;95844.03;5053285;28;20215;-84
2021/09/02 05:42:37;;;;;;;23.63;15.90;;;13.70;81.70;;;13.82;67.12;95847.78;5036685;28;20211;-83
2021/09/02 05:45:08;;;;;;;26.23;16.63;;;13.80;81.60;;;13.91;66.97;95849.31;5053268;28;20214;-84
2021/09/02 05:47:35;;;;;;;22.23;16.80;;;13.90;81.60;;;14.00;67.04;95856.09;5053634;28;20325;-84
2021/09/02 05:50:05;;;;;;;23.05;16.90;;;14.10;81.70;;;14.09;66.63;95857.56;5052888;28;20767;-84
2021/09/02 05:52:33;;;;;;;20.60;14.95;;;14.10;81.70;;;14.19;66.72;95861.72;5050566;28;20211;-84
2021/09/02 05:55:00;;;;;;;20.38;14.60;;;14.20;81.60;;;14.28;66.69;95857.94;5072414;28;20848;-85
2021/09/02 05:57:27;;;;;;;24.48;16.15;;;14.30;81.70;;;14.36;66.70;95851.69;5072488;28;20195;-84
2021/09/02 05:59:55;;;;;;;21.60;16.20;;;14.30;81.60;;;14.40;66.42;95848.50;5039809;28;20187;-84
2021/09/02 06:02:22;;;;;;;19.88;15.60;;;14.40;81.70;;;14.52;66.44;95855.88;5072538;28;20253;-84
2021/09/02 06:04:49;;;;;;;18.60;14.07;;;14.50;81.60;;;14.60;66.46;95860.16;5072779;28;20252;-83
2021/09/02 06:07:16;;;;;;;23.00;15.77;;;14.60;81.50;;;14.67;66.57;95864.53;5072837;28;20241;-84
2021/09/02 06:09:44;;;;;;;25.60;16.30;;;14.70;81.60;;;14.74;66.40;95859.28;5072598;28;20202;-84
2021/09/02 06:12:11;;;;;;;24.95;16.02;;;14.70;81.40;;;14.81;66.27;95860.13;5056119;28;20203;-84
2021/09/02 06:14:39;;;;;;;22.10;15.68;;;14.90;81.60;;;14.88;66.11;95863.63;5089121;28;20233;-84
2021/09/02 06:17:06;;;;;;;22.15;15.75;;;14.90;81.40;;;14.96;66.32;95856.56;5038941;28;20246;-83
2021/09/02 06:19:34;;;;;;;21.55;16.10;;;14.90;81.50;;;15.05;66.32;95858.84;5067596;28;20206;-84
2021/09/02 06:22:01;;;;;;;19.70;15.27;;;15.10;81.70;;;15.20;66.15;95856.03;5052887;28;20242;-83
2021/09/02 06:24:28;;;;;;;23.50;17.58;;;15.10;81.70;;;15.34;66.51;95861.38;5071410;28;20202;-84
2021/09/02 06:26:55;;;;;;;19.80;14.32;;;15.30;81.70;;;15.47;66.27;95855.31;5071191;28;20211;-84
2021/09/02 06:29:23;;;;;;;20.73;15.77;;;15.30;81.80;;;15.61;66.16;95864.94;5054489;28;20281;-83
2021/09/02 06:31:50;;;;;;;21.15;15.57;;;15.50;81.80;;;15.73;65.75;95867.78;5054128;28;20246;-84
2021/09/02 06:34:18;;;;;;;21.90;15.98;;;15.70;81.80;;;15.83;65.66;95864.78;5071706;28;20281;-85
2021/09/02 06:36:45;;;;;;;20.45;14.90;;;15.70;81.60;;;15.97;65.59;95863.78;5059181;28;20723;-85
2021/09/02 06:39:13;;;;;;;22.98;16.65;;;15.80;81.60;;;16.08;65.65;95861.56;5055814;28;20223;-85
2021/09/02 06:41:41;;;;;;;22.88;15.07;;;15.90;81.50;;;16.18;65.16;95856.69;5052778;28;20306;-83
2021/09/02 06:44:08;;;;;;;20.75;14.90;;;16.00;81.30;;;16.28;65.19;95862.41;5058202;28;20650;-82
2021/09/02 06:46:36;;;;;;;22.80;15.77;;;16.10;81.20;;;16.37;65.21;95868.28;5053578;28;20671;-83
2021/09/02 06:49:04;;;;;;;21.05;15.95;;;16.30;81.20;;;16.44;65.07;95862.97;5051142;28;20226;-83
2021/09/02 06:51:31;;;;;;;21.33;15.48;;;16.30;80.90;;;16.53;65.26;95872.34;5052326;28;20591;-82
2021/09/02 06:53:58;;;;;;;23.08;16.77;;;16.40;80.80;;;16.64;64.83;95873.56;5053454;28;20195;-83
2021/09/02 06:56:26;;;;;;;22.42;16.23;;;16.40;80.70;;;16.75;64.72;95864.97;5075581;28;20253;-83
2021/09/02 06:58:52;;;;;;;22.15;15.45;;;16.50;80.90;;;16.90;65.03;95872.69;5054306;28;20209;-83
2021/09/02 07:01:19;;;;;;;23.00;16.05;;;16.70;81.00;;;17.05;64.69;95871.66;5064171;28;20699;-84
2021/09/02 07:03:47;;;;;;;21.42;15.05;;;16.70;81.00;;;17.16;64.85;95863.03;5036577;28;20206;-84
2021/09/02 07:06:14;;;;;;;23.05;15.85;;;16.90;81.10;;;17.27;63.78;95873.00;5052977;28;20329;-84
2021/09/02 07:08:41;;;;;;;24.50;15.40;;;17.00;80.70;;;17.39;64.06;95867.03;5086505;28;20236;-82
2021/09/02 07:11:09;;;;;;;23.48;15.93;;;17.10;80.70;;;17.48;63.75;95873.75;5085580;28;20552;-82
2021/09/02 07:13:36;;;;;;;21.70;15.85;;;17.20;80.30;;;17.55;63.82;95873.69;5069462;28;20199;-82
2021/09/02 07:16:04;;;;;;;19.83;15.07;;;17.30;80.10;;;17.60;63.56;95873.88;5068482;28;20309;-82
2021/09/02 07:18:32;;;;;;;21.10;15.75;;;17.40;79.90;;;17.67;63.84;95879.16;5054255;28;20191;-82
2021/09/02 07:20:59;;;;;;;19.20;14.32;;;17.50;79.90;;;17.73;63.70;95865.84;5052770;28;20632;-82
2021/09/02 07:23:26;;;;;;;17.88;13.77;;;17.60;80.00;;;17.88;63.08;95868.22;5052621;28;20213;-83
2021/09/02 07:25:53;;;;;;;20.35;13.93;;;17.60;80.00;;;18.04;63.56;95872.22;5068669;28;20206;-83
2021/09/02 07:28:21;;;;;;;19.55;14.38;;;17.70;80.10;;;18.20;63.21;95875.34;5069015;28;20305;-82
2021/09/02 07:30:48;;;;;;;21.08;14.35;;;17.90;80.20;;;18.30;62.51;95873.03;5068845;28;20289;-82
2021/09/02 07:33:15;;;;;;;21.08;14.88;;;18.00;80.30;;;18.42;62.78;95877.63;5068679;28;20205;-83
2021/09/02 07:35:43;;;;;;;19.05;14.68;;;18.10;80.20;;;18.50;62.33;95875.50;5086148;28;20313;-84
2021/09/02 07:38:11;;;;;;;17.63;13.60;;;18.20;80.00;;;18.67;62.81;95882.94;5053155;28;20239;-84
2021/09/02 07:40:38;;;;;;;20.73;14.60;;;18.20;80.20;;;18.82;62.70;95877.28;5070229;28;20301;-85
2021/09/02 07:43:05;;;;;;;18.52;13.85;;;18.40;80.30;;;19.04;62.42;95885.66;5053339;28;20195;-85
2021/09/02 07:45:32;;;;;;;19.73;14.63;;;18.50;80.20;;;19.24;62.64;95880.13;5081132;28;20309;-85
2021/09/02 07:48:00;;;;;;;20.55;13.88;;;18.70;80.50;;;19.46;62.64;95885.78;5073069;28;20225;-85
2021/09/02 07:50:27;;;;;;;20.48;14.40;;;18.80;80.40;;;19.66;61.67;95884.72;5062164;28;20233;-85
2021/09/02 07:52:54;;;;;;;18.55;14.13;;;19.00;79.90;;;19.76;61.45;95884.19;5075054;28;20201;-84
2021/09/02 07:55:21;;;;;;;18.65;13.55;;;19.20;79.50;;;19.87;61.48;95894.09;5068023;28;20250;-84
2021/09/02 07:57:48;;;;;;;18.17;14.43;;;19.30;79.30;;;19.97;61.05;95883.72;5075151;28;20556;-84
2021/09/02 08:00:19;;;;;;;18.55;13.35;;;19.40;79.10;;;20.11;61.25;95900.31;5057169;28;20250;-85
2021/09/02 08:02:46;;;;;;;18.67;13.13;;;19.60;78.70;;;20.22;61.04;95893.38;5075204;28;20207;-84
2021/09/02 08:05:15;;;;;;;16.40;12.98;;;19.70;79.00;;;20.36;61.04;95893.16;5073265;28;20323;-85
2021/09/02 08:07:52;;;;;;;21.23;13.43;;;19.80;78.70;;;20.37;59.71;95903.59;5056475;28;20234;-85
2021/09/02 08:10:23;;;;;;;17.17;13.23;;;19.90;77.30;;;20.28;59.39;95907.66;5073665;28;20206;-85
2021/09/02 08:12:53;;;;;;;17.08;13.10;;;19.90;77.20;;;20.15;59.33;95912.13;5090282;28;20217;-84
2021/09/02 08:15:21;;;;;;;18.85;13.15;;;19.90;76.80;;;20.05;59.67;95911.88;5058169;28;20215;-85
2021/09/02 08:17:50;;;;;;;18.60;13.15;;;19.90;76.70;;;19.95;59.55;95915.06;5057800;28;20294;-85
2021/09/02 08:20:20;;;;;;;17.25;12.25;;;19.90;77.50;;;19.88;59.59;95914.34;5074321;28;20215;-84
2021/09/02 08:22:48;;;;;;;17.45;13.55;;;19.80;76.50;;;19.80;59.51;95904.81;5057604;28;20268;-85
2021/09/02 08:25:15;;;;;;;20.67;13.50;;;19.80;76.50;;;19.75;59.74;95909.16;5057655;28;20215;-84
2021/09/02 08:27:45;;;;;;;17.65;12.93;;;19.70;76.60;;;19.76;59.64;95918.78;5073638;28;20309;-84
2021/09/02 08:30:16;;;;;;;16.50;12.82;;;19.70;76.50;;;19.77;59.57;95915.09;5057359;28;20260;-85
2021/09/02 08:32:47;;;;;;;17.30;12.57;;;19.70;76.80;;;19.78;59.26;95908.75;5057799;28;20218;-85
2021/09/02 08:35:30;;;;;;;19.20;13.25;;;19.70;76.80;;;19.75;59.27;95910.00;5057566;28;20222;-85
2021/09/02 08:38:02;;;;;;;17.25;12.63;;;19.60;76.10;;;19.75;58.70;95910.00;5073540;28;20273;-84
2021/09/02 08:40:33;;;;;;;18.90;14.10;;;19.60;76.30;;;19.66;58.07;95912.16;5074188;28;20226;-84
2021/09/02 08:43:01;;;;;;;19.98;14.07;;;19.60;75.60;;;19.60;58.65;95907.72;5074228;28;20198;-84
2021/09/02 08:45:30;;;;;;;16.85;12.63;;;19.60;75.70;;;19.59;58.92;95911.44;5073598;28;20227;-84
2021/09/02 08:48:00;;;;;;;16.00;11.52;;;19.50;75.60;;;19.60;59.21;95915.69;5073969;28;20313;-84
2021/09/02 08:50:31;;;;;;;16.83;12.40;;;19.50;75.90;;;19.58;59.14;95909.81;5073981;28;20745;-84
2021/09/02 08:52:59;;;;;;;18.02;13.23;;;19.60;75.80;;;19.61;58.38;95905.88;5057167;28;20198;-85
2021/09/02 08:55:28;;;;;;;16.95;12.48;;;19.50;75.80;;;19.60;58.55;95905.06;5061790;28;20221;-84
2021/09/02 08:57:57;;;;;;;19.42;13.70;;;19.60;75.80;;;19.68;58.19;95909.28;5064968;28;20648;-84
2021/09/02 09:00:26;;;;;;;20.63;13.90;;;19.50;75.70;;;19.74;58.22;95915.53;5055454;28;20648;-84
2021/09/02 09:03:03;;;;;;;19.70;13.63;;;19.50;75.90;;;19.79;58.68;95910.38;5057000;28;20187;-85
2021/09/02 09:05:36;;;;;;;20.25;13.85;;;19.50;75.50;;;19.83;57.91;95917.72;5034941;28;20223;-85
2021/09/02 09:08:12;;;;;;;17.80;13.13;;;19.60;75.40;;;19.84;57.41;95902.53;5035463;28;20254;-85
2021/09/02 09:10:41;;;;;;;18.70;13.13;;;19.60;75.20;;;19.89;57.96;95901.88;5036237;28;20298;-85
2021/09/02 09:13:09;;;;;;;16.83;12.30;;;19.70;75.50;;;19.95;57.73;95906.28;5052385;28;20223;-85
2021/09/02 09:15:40;;;;;;;18.33;13.63;;;19.70;75.60;;;20.00;57.95;95901.09;5051472;28;20470;-85
2021/09/02 09:18:23;;;;;;;15.75;13.25;;;19.70;75.40;;;20.05;57.81;95906.53;5071484;28;20198;-84
2021/09/02 09:21:09;;;;;;;16.15;12.55;;;19.80;75.40;;;20.12;58.17;95903.78;5071649;28;20210;-84
2021/09/02 09:24:07;;;;;;;15.27;11.88;;;19.80;75.70;;;20.21;58.13;95902.41;5071623;28;20199;-84
2021/09/02 09:26:35;;;;;;;16.08;12.70;;;19.90;75.60;;;20.30;57.16;95905.56;5087211;28;20249;-85
2021/09/02 09:29:22;;;;;;;16.10;11.95;;;20.00;75.30;;;20.37;58.20;95894.81;5056314;28;20219;-84
2021/09/02 09:31:49;;;;;;;15.80;11.52;;;20.00;75.50;;;20.50;57.23;95899.91;5073001;28;20222;-85
2021/09/02 09:34:16;;;;;;;16.35;12.95;;;20.10;75.60;;;20.57;57.00;95895.28;5055862;28;20202;-85
2021/09/02 09:36:44;;;;;;;15.80;12.40;;;20.20;75.10;;;20.63;56.65;95896.22;5056218;28;20223;-85
2021/09/02 09:39:14;;;;;;;16.85;12.82;;;20.20;74.90;;;20.69;56.33;95892.63;5056496;28;20286;-84
2021/09/02 09:41:49;;;;;;;15.52;11.70;;;20.30;74.70;;;20.80;55.34;95904.38;5072456;28;20238;-85
2021/09/02 09:44:28;;;;;;;16.80;12.05;;;20.40;74.40;;;20.88;56.03;95895.22;5073160;28;20182;-85
2021/09/02 09:47:14;;;;;;;13.23;10.77;;;20.50;74.30;;;20.99;56.13;95899.72;5072720;28;20222;-85
2021/09/02 09:49:55;;;;;;;14.95;10.65;;;20.60;74.50;;;21.10;56.68;95887.41;5064999;28;20203;-83
2021/09/02 09:52:37;;;;;;;15.23;11.30;;;20.60;74.70;;;21.25;55.79;95890.41;5059616;28;20968;-84
2021/09/02 09:55:04;;;;;;;13.88;11.32;;;20.70;74.40;;;21.39;54.68;95895.47;5063514;28;20251;-84
2021/09/02 09:57:34;;;;;;;13.32;10.50;;;20.90;74.20;;;21.55;55.80;95893.94;5078634;28;20206;-84
2021/09/02 10:00:08;;;;;;;13.15;10.45;;;21.00;74.50;;;21.71;55.57;95897.72;5055216;28;20212;-84
2021/09/02 10:02:41;;;;;;;13.35;10.88;;;21.10;74.20;;;21.83;55.04;95898.50;5055119;28;20196;-83
2021/09/02 10:05:14;;;;;;;13.60;10.63;;;21.30;73.90;;;22.00;54.45;95895.06;5054870;28;20219;-84
2021/09/02 10:07:45;;;;;;;10.70;9.45;;;21.40;73.70;;;22.23;55.15;95886.09;5038520;28;20194;-84
2021/09/02 10:10:15;;;;;;;10.52;8.80;;;21.50;73.90;;;22.42;54.67;95886.69;5054847;28;20245;-84
2021/09/02 10:12:46;;;;;;;12.07;9.25;;;21.70;73.60;;;22.59;54.51;95889.38;5076605;28;20269;-84